createdAt,value
2019-01-05T05:03:12.018Z,45.40
2019-01-05T05:06:25.330Z,42.97
2019-01-05T05:09:34.459Z,44.20
2019-01-05T05:13:07.690Z,36.97
2019-01-05T06:02:42.163Z,39.93
2019-01-05T06:06:03.390Z,42.93
2019-01-05T06:09:20.415Z,41.03
2019-01-05T06:13:05.218Z,44.30
2019-01-05T07:02:31.862Z,43.07
2019-01-05T07:06:26.049Z,39.90
2019-01-05T07:09:44.869Z,42.00
2019-01-05T07:13:16.221Z,41.83
2019-01-05T08:02:40.604Z,40.63
2019-01-05T08:06:04.902Z,39.33
2019-01-05T08:09:21.623Z,33.10
2019-01-05T08:12:51.675Z,41.03
2019-01-05T09:03:11.704Z,41.27
2019-01-05T09:06:51.449Z,44.03
2019-01-05T09:10:27.778Z,33.93
2019-01-05T09:13:45.264Z,36.97
2019-01-05T10:04:08.032Z,25.47
2019-01-05T10:07:21.858Z,15.67
2019-01-05T10:10:35.572Z,18.33
2019-01-05T10:14:27.489Z,21.90
2019-01-05T11:03:49.089Z,11.90
2019-01-05T11:07:14.830Z,9.97
2019-01-05T11:10:46.344Z,12.23
2019-01-05T11:14:07.810Z,12.63
2019-01-05T12:01:15.923Z,10.87
2019-01-05T12:04:36.988Z,11.03
2019-01-05T12:07:31.265Z,9.53
2019-01-05T12:10:25.499Z,12.10
2019-01-05T12:13:35.157Z,12.50
2019-01-05T13:01:45.900Z,9.77
2019-01-05T13:04:49.474Z,5.87
2019-01-05T13:10:23.436Z,7.43
2019-01-05T14:02:47.256Z,8.67
2019-01-05T14:05:25.899Z,10.50
2019-01-05T14:08:19.722Z,10.00
2019-01-05T14:10:55.187Z,7.60
2019-01-05T14:13:50.926Z,9.67
2019-01-05T15:02:21.709Z,9.30
2019-01-05T15:05:16.281Z,8.57
2019-01-05T15:08:10.540Z,8.30
2019-01-05T15:11:04.962Z,9.57
2019-01-05T15:13:59.875Z,10.40
2019-01-05T16:00:37.334Z,21.37
2019-01-05T16:03:18.170Z,21.23
2019-01-05T16:06:18.658Z,22.30
2019-01-05T16:09:18.848Z,24.00
2019-01-05T16:12:13.030Z,18.60
2019-01-05T16:26:58.889Z,15.93
2019-01-05T16:29:35.472Z,17.57
2019-01-05T16:32:16.298Z,17.93
2019-01-05T16:34:57.123Z,18.87
2019-01-05T16:37:41.978Z,16.23
2019-01-05T16:40:16.604Z,17.97
2019-01-05T16:43:04.706Z,18.60
2019-01-05T16:45:45.502Z,21.23
2019-01-05T16:48:30.367Z,18.33
2019-01-05T16:51:18.364Z,20.50
2019-01-05T16:54:00.315Z,19.27
2019-01-05T16:56:54.575Z,18.13
2019-01-05T16:59:36.537Z,16.10
2019-01-05T17:02:16.846Z,21.10
2019-01-05T17:04:58.790Z,19.33
2019-01-05T17:07:39.582Z,17.27
2019-01-05T17:10:20.292Z,20.63
2019-01-05T17:13:00.506Z,17.63
2019-01-05T17:35:50.851Z,19.30
2019-01-05T17:38:35.688Z,17.17
2019-01-05T17:41:13.918Z,18.53
2019-01-05T17:44:14.114Z,17.63
2019-01-05T17:46:47.134Z,17.33
2019-01-05T17:49:27.422Z,19.53
2019-01-05T17:52:12.194Z,21.03
2019-01-05T17:54:53.116Z,19.63
2019-01-05T17:57:41.070Z,21.53
2019-01-05T18:00:21.872Z,20.10
2019-01-05T18:03:02.611Z,19.73
2019-01-05T18:05:44.625Z,20.60
2019-01-05T18:08:32.772Z,18.30
2019-01-05T18:11:04.894Z,17.87
2019-01-05T18:14:02.047Z,19.67
2019-01-05T18:25:18.781Z,20.43
2019-01-05T18:28:00.834Z,16.73
2019-01-05T18:30:49.199Z,18.93
2019-01-05T18:33:32.545Z,18.90
2019-01-05T18:36:13.183Z,19.03
2019-01-05T18:39:04.158Z,16.07
2019-01-05T18:41:46.446Z,21.50
2019-01-05T18:44:43.583Z,19.47
2019-01-05T18:47:37.558Z,19.37
2019-01-05T18:50:18.377Z,17.93
2019-01-05T18:52:58.969Z,19.17
2019-01-05T18:55:39.538Z,20.50
2019-01-05T19:10:35.486Z,21.00
2019-01-05T19:13:12.953Z,19.43
2019-01-05T20:01:35.686Z,20.37
2019-01-05T20:04:16.331Z,19.30
2019-01-05T20:07:13.125Z,19.83
2019-01-05T20:10:13.632Z,20.50
2019-01-05T20:12:58.391Z,19.47
2019-01-05T21:02:14.198Z,18.67
2019-01-05T21:04:59.211Z,22.73
2019-01-05T21:07:39.685Z,22.60
2019-01-05T21:10:39.135Z,20.63
2019-01-05T21:13:30.350Z,16.77
